createdAt,value
2018-04-22T00:02:06.807Z,76.60
2018-04-22T00:04:34.470Z,76.70
2018-04-22T00:07:02.078Z,76.90
2018-04-22T00:09:29.730Z,77.10
2018-04-22T00:11:58.111Z,77.40
2018-04-22T00:14:25.755Z,77.40
2018-04-22T00:16:53.383Z,77.70
2018-04-22T00:19:21.031Z,77.80
2018-04-22T00:21:48.697Z,77.80
2018-04-22T00:24:16.326Z,77.90
2018-04-22T00:26:43.991Z,78.10
2018-04-22T00:29:11.645Z,78.10
2018-04-22T00:31:40.058Z,78.40
2018-04-22T00:34:08.525Z,78.70
2018-04-22T00:36:36.958Z,78.80
2018-04-22T00:39:04.634Z,78.70
2018-04-22T00:50:16.037Z,78.80
2018-04-22T00:52:43.710Z,78.90
2018-04-22T00:55:12.567Z,79.20
2018-04-22T00:57:40.204Z,79.10
2018-04-22T01:00:07.825Z,79.40
2018-04-22T01:02:35.482Z,79.40
2018-04-22T01:05:03.188Z,79.50
2018-04-22T01:07:31.557Z,79.60
2018-04-22T01:09:59.234Z,79.60
2018-04-22T01:12:26.877Z,80.50
2018-04-22T01:14:55.281Z,79.70
2018-04-22T01:17:23.754Z,79.70
2018-04-22T01:19:51.393Z,79.70
2018-04-22T01:22:19.062Z,79.80
2018-04-22T01:24:46.697Z,79.90
2018-04-22T01:27:15.109Z,80.00
2018-04-22T01:29:42.749Z,80.00
2018-04-22T01:32:11.150Z,80.30
2018-04-22T01:34:39.607Z,80.30
2018-04-22T01:37:07.238Z,80.30
2018-04-22T01:39:34.861Z,80.40
2018-04-22T01:42:02.535Z,80.70
2018-04-22T01:44:30.173Z,80.70
2018-04-22T01:46:57.844Z,80.70
2018-04-22T01:49:25.505Z,80.80
2018-04-22T01:51:53.192Z,80.90
2018-04-22T01:54:20.850Z,80.90
2018-04-22T01:56:49.742Z,81.20
2018-04-22T01:59:17.397Z,81.20
2018-04-22T02:01:45.056Z,81.20
2018-04-22T02:04:13.501Z,81.30
2018-04-22T02:06:41.175Z,81.20
2018-04-22T02:09:08.809Z,81.10
2018-04-22T02:11:36.478Z,81.10
2018-04-22T02:14:04.117Z,81.10
2018-04-22T02:16:31.766Z,81.20
2018-04-22T02:18:59.396Z,81.40
2018-04-22T02:21:27.000Z,81.60
2018-04-22T02:23:54.644Z,81.90
2018-04-22T02:26:23.014Z,82.30
2018-04-22T02:28:50.679Z,82.20
2018-04-22T02:31:18.338Z,82.40
2018-04-22T02:33:45.969Z,82.50
2018-04-22T02:36:13.626Z,82.40
2018-04-22T02:38:42.032Z,82.80
2018-04-22T02:41:10.465Z,82.90
2018-04-22T02:43:38.207Z,82.90
2018-04-22T02:46:05.821Z,82.80
2018-04-22T02:48:34.229Z,82.80
2018-04-22T02:51:02.614Z,82.80
2018-04-22T02:53:31.058Z,83.40
2018-04-22T02:55:59.546Z,83.00
2018-04-22T02:58:27.161Z,83.00
2018-04-22T03:00:54.808Z,83.10
2018-04-22T03:03:23.238Z,83.20
2018-04-22T03:05:50.896Z,83.20
2018-04-22T03:08:19.292Z,83.40
2018-04-22T03:10:47.693Z,83.40
2018-04-22T03:13:16.129Z,83.50
2018-04-22T03:15:44.546Z,83.50
2018-04-22T03:18:12.210Z,83.50
2018-04-22T03:20:40.727Z,83.70
2018-04-22T03:23:08.357Z,83.60
2018-04-22T03:25:36.016Z,83.60
2018-04-22T03:28:03.670Z,83.70
2018-04-22T03:30:31.611Z,83.70
2018-04-22T03:32:59.286Z,83.80
2018-04-22T03:35:26.940Z,83.90
2018-04-22T03:37:54.586Z,84.70
2018-04-22T03:40:22.217Z,84.00
2018-04-22T03:42:49.894Z,84.00
2018-04-22T03:45:17.554Z,84.20
2018-04-22T03:47:45.181Z,84.10
2018-04-22T03:50:12.829Z,84.20
2018-04-22T03:52:40.484Z,84.30
2018-04-22T03:55:08.887Z,84.30
2018-04-22T03:57:36.530Z,84.40
2018-04-22T04:00:04.236Z,84.30
2018-04-22T04:02:31.901Z,84.30
2018-04-22T04:04:59.528Z,84.30
2018-04-22T04:07:28.681Z,84.40
2018-04-22T04:09:56.401Z,84.30
2018-04-22T04:12:24.085Z,84.40
2018-04-22T04:14:51.751Z,84.50
2018-04-22T04:17:19.398Z,84.60
2018-04-22T04:19:58.833Z,84.90
2018-04-22T04:22:38.361Z,85.10
2018-04-22T04:25:37.652Z,85.10
2018-04-22T04:28:05.376Z,85.20
2018-04-22T04:30:33.803Z,85.10
2018-04-22T04:33:01.467Z,85.10
2018-04-22T04:35:29.872Z,85.30
2018-04-22T04:37:58.284Z,85.40
2018-04-22T04:40:25.947Z,85.30
2018-04-22T04:42:53.556Z,85.50
2018-04-22T04:45:21.917Z,85.60
2018-04-22T04:47:49.573Z,85.60
2018-04-22T04:50:17.213Z,85.60
2018-04-22T04:52:45.614Z,85.90
2018-04-22T04:55:13.318Z,85.80
2018-04-22T05:00:37.980Z,85.90
2018-04-22T05:03:05.629Z,85.70
2018-04-22T05:05:33.311Z,85.90
2018-04-22T05:08:00.971Z,85.90
2018-04-22T05:10:29.365Z,86.10
2018-04-22T05:12:57.043Z,86.10
2018-04-22T05:15:24.754Z,86.20
2018-04-22T05:17:53.158Z,86.30
2018-04-22T05:20:21.573Z,86.30
2018-04-22T05:22:49.942Z,86.50
2018-04-22T05:25:17.909Z,86.50
2018-04-22T05:27:45.697Z,86.60
2018-04-22T05:30:13.305Z,86.70
2018-04-22T05:32:40.974Z,86.60
2018-04-22T05:35:08.622Z,86.50
2018-04-22T05:37:36.313Z,86.50
2018-04-22T05:40:03.941Z,86.30
2018-04-22T05:42:31.564Z,86.10
2018-04-22T05:44:59.247Z,86.10
2018-04-22T05:47:26.875Z,86.20
2018-04-22T05:49:55.275Z,86.20
2018-04-22T05:52:23.734Z,86.10
2018-04-22T05:54:51.376Z,86.00
2018-04-22T05:57:19.786Z,86.10
2018-04-22T05:59:48.182Z,86.00
2018-04-22T06:02:16.581Z,86.00
2018-04-22T06:04:44.990Z,85.90
2018-04-22T06:07:13.457Z,85.90
2018-04-22T06:09:41.077Z,86.00
2018-04-22T06:12:09.722Z,85.70
2018-04-22T06:14:37.378Z,85.60
2018-04-22T06:17:06.313Z,85.20
2018-04-22T06:19:33.996Z,85.20
2018-04-22T06:22:01.641Z,84.70
2018-04-22T06:24:29.674Z,84.20
2018-04-22T06:26:58.159Z,82.80
2018-04-22T06:29:25.822Z,82.80
2018-04-22T06:31:53.458Z,83.00
2018-04-22T06:34:21.158Z,82.20
2018-04-22T06:36:48.802Z,81.70
2018-04-22T06:39:16.441Z,81.20
2018-04-22T06:41:44.121Z,80.60
2018-04-22T06:44:11.762Z,80.10
2018-04-22T06:46:39.455Z,79.60
2018-04-22T06:49:07.140Z,79.40
2018-04-22T06:51:34.776Z,78.90
2018-04-22T06:54:02.442Z,78.50
2018-04-22T06:56:30.125Z,77.80
2018-04-22T06:58:57.760Z,77.20
2018-04-22T07:01:26.310Z,76.80
2018-04-22T07:03:54.016Z,76.70
2018-04-22T07:06:21.991Z,76.50
2018-04-22T07:08:49.932Z,76.30
2018-04-22T07:11:18.439Z,75.70
2018-04-22T07:13:46.198Z,75.80
2018-04-22T07:16:13.933Z,75.60
2018-04-22T07:18:41.640Z,75.00
2018-04-22T07:21:09.383Z,74.20
2018-04-22T07:23:37.147Z,73.20
2018-04-22T07:26:06.702Z,72.20
2018-04-22T07:31:29.139Z,71.40
2018-04-22T07:34:10.186Z,70.00
2018-04-22T07:36:37.933Z,70.00
2018-04-22T07:39:06.663Z,69.40
2018-04-22T07:41:40.429Z,68.90
2018-04-22T07:47:08.776Z,68.60
2018-04-22T07:49:36.469Z,68.10
2018-04-22T07:52:04.153Z,67.30
2018-04-22T07:54:31.856Z,66.60
2018-04-22T07:56:59.574Z,66.00
2018-04-22T07:59:27.367Z,65.40
2018-04-22T08:01:55.115Z,65.60
2018-04-22T08:04:22.806Z,64.30
2018-04-22T08:06:50.553Z,63.90
2018-04-22T08:09:18.263Z,64.20
2018-04-22T08:11:46.079Z,63.40
2018-04-22T08:14:13.814Z,63.10
2018-04-22T08:16:42.320Z,62.30
2018-04-22T08:19:10.312Z,62.20
2018-04-22T08:21:38.097Z,61.70
2018-04-22T08:24:06.594Z,60.90
2018-04-22T08:26:34.401Z,60.80
2018-04-22T08:29:02.151Z,60.50
2018-04-22T08:31:29.955Z,59.80
2018-04-22T08:33:57.658Z,59.40
2018-04-22T08:36:25.674Z,58.90
2018-04-22T08:38:54.082Z,57.70
2018-04-22T08:41:21.768Z,57.70
2018-04-22T08:43:49.419Z,57.10
2018-04-22T08:46:17.830Z,56.20
2018-04-22T08:48:45.495Z,56.20
2018-04-22T08:51:13.143Z,56.20
2018-04-22T08:53:40.802Z,56.40
2018-04-22T08:56:08.454Z,56.20
2018-04-22T08:58:36.260Z,56.00
2018-04-22T09:01:03.913Z,55.90
2018-04-22T09:03:31.552Z,56.20
2018-04-22T09:05:59.215Z,56.00
2018-04-22T09:08:26.902Z,56.20
2018-04-22T09:10:54.721Z,56.30
2018-04-22T09:13:22.402Z,55.50
2018-04-22T09:15:50.075Z,55.10
2018-04-22T09:18:17.717Z,54.70
2018-04-22T09:20:45.380Z,54.50
2018-04-22T09:23:13.050Z,53.90
2018-04-22T09:25:40.758Z,53.30
2018-04-22T09:28:08.373Z,53.00
2018-04-22T09:30:36.021Z,52.80
2018-04-22T09:33:03.719Z,52.40
2018-04-22T09:35:31.375Z,52.40
2018-04-22T09:37:59.816Z,52.80
2018-04-22T09:40:28.482Z,52.00
2018-04-22T09:42:56.126Z,52.10
2018-04-22T09:45:23.791Z,52.50
2018-04-22T09:47:51.479Z,51.60
2018-04-22T09:50:19.914Z,51.60
2018-04-22T09:52:47.542Z,51.00
2018-04-22T09:55:15.226Z,51.10
2018-04-22T09:57:42.869Z,50.30
2018-04-22T10:00:11.344Z,49.70
2018-04-22T10:02:39.834Z,49.70
2018-04-22T10:05:08.625Z,49.10
2018-04-22T10:07:36.268Z,49.20
2018-04-22T10:10:03.981Z,48.90
2018-04-22T10:12:31.585Z,48.60
2018-04-22T10:14:59.240Z,48.20
2018-04-22T10:17:26.884Z,48.00
2018-04-22T10:19:54.527Z,48.00
2018-04-22T10:22:22.165Z,48.00
2018-04-22T10:24:49.804Z,47.50
2018-04-22T10:27:17.474Z,47.20
2018-04-22T10:29:45.136Z,46.70
2018-04-22T10:32:12.865Z,46.20
2018-04-22T10:34:40.613Z,45.50
2018-04-22T10:37:08.383Z,44.90
2018-04-22T10:39:36.038Z,44.60
2018-04-22T10:42:04.761Z,44.00
2018-04-22T10:44:33.172Z,43.50
2018-04-22T10:47:00.886Z,42.90
2018-04-22T10:49:29.508Z,42.00
2018-04-22T10:51:57.190Z,42.00
2018-04-22T10:54:24.866Z,41.80
2018-04-22T10:56:52.533Z,41.90
2018-04-22T10:59:20.218Z,41.60
2018-04-22T11:01:49.088Z,41.00
2018-04-22T11:04:17.526Z,40.70
2018-04-22T11:06:45.189Z,40.70
2018-04-22T11:09:12.818Z,40.30
2018-04-22T11:11:40.465Z,40.20
2018-04-22T11:14:08.121Z,39.80
2018-04-22T11:16:35.741Z,39.50
2018-04-22T11:19:03.405Z,39.50
2018-04-22T11:21:31.054Z,40.10
2018-04-22T11:23:58.726Z,39.00
2018-04-22T11:26:26.384Z,38.50
2018-04-22T11:28:54.074Z,38.40
2018-04-22T11:31:21.725Z,38.10
2018-04-22T11:33:49.359Z,37.70
2018-04-22T11:36:17.772Z,37.40
2018-04-22T11:38:45.422Z,37.30
2018-04-22T11:41:13.065Z,37.20
2018-04-22T11:43:40.700Z,35.80
2018-04-22T11:46:09.461Z,34.40
2018-04-22T11:48:37.067Z,34.40
2018-04-22T11:51:04.697Z,34.40
2018-04-22T11:53:32.389Z,34.50
2018-04-22T11:56:00.066Z,34.50
2018-04-22T11:58:27.673Z,34.60
2018-04-22T12:00:55.322Z,34.20
2018-04-22T12:03:22.963Z,33.50
2018-04-22T12:05:50.618Z,33.40
2018-04-22T12:08:18.577Z,33.30
2018-04-22T12:10:46.961Z,31.90
2018-04-22T12:13:14.593Z,31.90
2018-04-22T12:15:42.237Z,32.00
2018-04-22T12:18:09.893Z,30.90
2018-04-22T12:20:38.586Z,30.60
2018-04-22T12:23:06.223Z,30.10
2018-04-22T12:25:34.596Z,30.60
2018-04-22T12:28:02.264Z,30.60
2018-04-22T12:30:29.943Z,30.70
2018-04-22T12:32:57.665Z,30.80
2018-04-22T12:35:25.317Z,30.00
2018-04-22T12:37:52.995Z,30.10
2018-04-22T12:40:21.366Z,30.20
2018-04-22T12:42:49.015Z,30.20
2018-04-22T12:45:16.646Z,30.40
2018-04-22T12:47:44.302Z,30.40
2018-04-22T12:50:11.907Z,30.30
2018-04-22T12:52:39.556Z,29.70
2018-04-22T12:55:08.079Z,29.40
2018-04-22T12:57:35.949Z,29.40
2018-04-22T13:00:04.063Z,29.50
2018-04-22T13:02:37.392Z,28.80
2018-04-22T13:05:05.432Z,28.80
2018-04-22T13:07:34.069Z,28.00
2018-04-22T13:10:02.205Z,28.00
2018-04-22T13:12:30.335Z,27.80
2018-04-22T13:14:59.024Z,26.90
2018-04-22T13:17:27.238Z,26.90
2018-04-22T13:19:58.256Z,27.00
2018-04-22T13:22:26.173Z,26.90
2018-04-22T13:24:54.097Z,26.80
2018-04-22T13:27:21.926Z,26.90
2018-04-22T13:29:49.815Z,26.80
2018-04-22T13:32:17.711Z,27.10
2018-04-22T13:34:46.409Z,27.20
2018-04-22T13:37:14.283Z,27.10
2018-04-22T13:39:55.650Z,27.00
2018-04-22T13:42:25.500Z,27.60
2018-04-22T13:44:53.330Z,28.30
2018-04-22T13:47:42.988Z,28.50
2018-04-22T13:50:10.908Z,28.60
2018-04-22T13:52:46.544Z,28.60
2018-04-22T13:55:14.411Z,28.60
2018-04-22T13:57:42.402Z,28.80
2018-04-22T14:00:12.378Z,28.20
2018-04-22T14:02:40.234Z,28.30
2018-04-22T14:05:09.087Z,28.10
2018-04-22T14:07:38.746Z,27.10
2018-04-22T14:10:07.345Z,27.00
2018-04-22T14:12:55.003Z,26.50
2018-04-22T14:15:23.959Z,25.60
2018-04-22T14:21:08.980Z,25.30
2018-04-22T14:23:37.622Z,25.60
2018-04-22T14:26:05.562Z,25.60
2018-04-22T14:28:33.562Z,26.10
2018-04-22T14:31:03.066Z,26.20
2018-04-22T14:33:31.966Z,26.40
2018-04-22T14:36:00.633Z,26.40
2018-04-22T14:38:48.439Z,26.10
2018-04-22T14:44:23.668Z,26.40
2018-04-22T14:46:51.576Z,26.50
2018-04-22T14:49:19.434Z,26.40
2018-04-22T14:51:47.384Z,26.40
2018-04-22T14:54:15.365Z,26.10
2018-04-22T14:56:43.283Z,25.90
2018-04-22T14:59:11.666Z,25.80
2018-04-22T15:01:39.648Z,25.80
2018-04-22T15:04:07.548Z,25.90
2018-04-22T15:06:36.208Z,26.00
2018-04-22T15:12:15.740Z,26.10
2018-04-22T15:14:43.635Z,26.40
2018-04-22T15:17:11.521Z,26.90
2018-04-22T15:19:40.229Z,27.00
2018-04-22T15:22:08.690Z,27.00
2018-04-22T15:24:37.651Z,26.60
2018-04-22T15:27:05.559Z,26.30
2018-04-22T15:29:33.565Z,26.00
2018-04-22T15:32:01.502Z,26.00
2018-04-22T15:34:30.153Z,25.80
2018-04-22T15:36:58.121Z,25.80
2018-04-22T15:39:26.794Z,26.50
2018-04-22T15:41:54.691Z,26.50
2018-04-22T15:44:22.556Z,27.00
2018-04-22T15:46:50.483Z,27.60
2018-04-22T15:49:18.397Z,28.30
2018-04-22T15:51:46.295Z,29.10
2018-04-22T15:54:14.175Z,29.00
2018-04-22T15:56:42.036Z,29.40
2018-04-22T15:59:09.964Z,30.10
2018-04-22T16:01:37.850Z,30.40
2018-04-22T16:04:05.797Z,30.80
2018-04-22T16:06:34.448Z,30.90
2018-04-22T16:09:02.447Z,30.90
2018-04-22T16:11:30.865Z,30.40
2018-04-22T16:13:58.784Z,29.90
2018-04-22T16:16:26.724Z,29.90
2018-04-22T16:18:54.723Z,30.60
2018-04-22T16:21:22.945Z,31.40
2018-04-22T16:23:56.494Z,31.70
2018-04-22T16:26:24.448Z,32.40
2018-04-22T16:28:52.493Z,32.70
2018-04-22T16:31:33.144Z,32.40
2018-04-22T16:34:02.040Z,31.60
2018-04-22T16:36:29.967Z,32.50
2018-04-22T16:38:57.804Z,33.00
2018-04-22T16:41:26.415Z,34.60
2018-04-22T16:43:54.276Z,34.50
2018-04-22T16:46:22.059Z,34.90
2018-04-22T16:48:49.904Z,35.60
2018-04-22T16:51:17.682Z,36.20
2018-04-22T16:53:45.619Z,36.70
2018-04-22T16:56:14.337Z,38.20
2018-04-22T16:58:42.209Z,38.10
2018-04-22T17:01:10.062Z,38.00
2018-04-22T17:03:37.824Z,38.60
2018-04-22T17:06:05.758Z,38.90
2018-04-22T17:08:33.836Z,39.00
2018-04-22T17:11:02.659Z,39.00
2018-04-22T17:13:31.070Z,40.00
2018-04-22T17:15:58.864Z,39.70
2018-04-22T17:18:26.758Z,40.10
2018-04-22T17:20:54.582Z,40.10
2018-04-22T17:23:22.185Z,41.00
2018-04-22T17:25:49.764Z,41.90
2018-04-22T17:28:17.368Z,42.60
2018-04-22T17:30:44.945Z,42.60
2018-04-22T17:36:16.860Z,43.20
2018-04-22T17:38:44.507Z,43.20
2018-04-22T17:41:12.857Z,43.90
2018-04-22T17:43:40.452Z,43.90
2018-04-22T17:46:08.021Z,44.70
2018-04-22T17:48:35.637Z,45.00
2018-04-22T17:51:03.217Z,45.40
2018-04-22T17:53:31.252Z,45.70
2018-04-22T17:56:00.237Z,46.30
2018-04-22T17:58:27.874Z,46.70
2018-04-22T18:00:56.340Z,46.60
2018-04-22T18:03:24.826Z,47.30
2018-04-22T18:20:41.769Z,49.00
2018-04-22T18:23:10.456Z,48.90
2018-04-22T18:25:38.108Z,48.90
2018-04-22T18:28:05.774Z,49.30
2018-04-22T18:30:33.413Z,49.20
2018-04-22T18:33:01.989Z,49.50
2018-04-22T18:35:29.721Z,49.60
2018-04-22T18:37:57.403Z,49.60
2018-04-22T18:40:26.217Z,49.50
2018-04-22T18:42:54.717Z,49.20
2018-04-22T18:45:22.655Z,49.20
2018-04-22T18:47:50.302Z,49.60
2018-04-22T18:50:17.952Z,49.70
2018-04-22T18:52:45.557Z,49.90
2018-04-22T18:58:14.246Z,50.90
2018-04-22T19:00:41.918Z,51.50
2018-04-22T19:03:09.615Z,52.10
2018-04-22T19:05:37.533Z,52.40
2018-04-22T19:08:05.937Z,51.90
2018-04-22T19:10:33.568Z,51.90
2018-04-22T19:13:01.602Z,51.40
2018-04-22T19:15:40.090Z,50.60
2018-04-22T19:24:08.218Z,47.40
2018-04-22T19:26:36.754Z,46.00
2018-04-22T19:29:04.418Z,45.90
2018-04-22T19:31:33.225Z,45.70
2018-04-22T19:34:00.910Z,45.50
2018-04-22T19:36:28.550Z,45.30
2018-04-22T19:39:00.012Z,45.40
2018-04-22T19:41:28.424Z,45.20
2018-04-22T19:43:56.090Z,45.10
2018-04-22T19:46:23.713Z,45.20
2018-04-22T19:48:52.170Z,45.30
2018-04-22T19:51:20.333Z,45.40
2018-04-22T19:56:58.995Z,46.70
2018-04-22T19:59:26.727Z,46.50
2018-04-22T20:02:04.884Z,46.90
2018-04-22T20:04:33.340Z,47.40
2018-04-22T20:07:01.070Z,47.40
2018-04-22T20:09:28.707Z,47.40
2018-04-22T20:11:56.442Z,47.40
2018-04-22T20:14:24.078Z,47.40
2018-04-22T20:16:51.738Z,47.60
2018-04-22T20:19:19.529Z,47.50
2018-04-22T20:21:47.249Z,47.80
2018-04-22T20:24:14.885Z,47.30
2018-04-22T20:26:42.525Z,47.40
2018-04-22T20:29:10.179Z,47.90
2018-04-22T20:31:37.798Z,47.30
2018-04-22T20:34:05.492Z,47.40
2018-04-22T20:36:33.118Z,47.10
2018-04-22T20:39:00.857Z,46.80
2018-04-22T20:41:28.510Z,46.70
2018-04-22T20:43:56.150Z,47.00
2018-04-22T20:46:24.647Z,47.80
2018-04-22T20:48:53.772Z,47.40
2018-04-22T20:51:21.409Z,47.30
2018-04-22T20:53:49.857Z,47.50
2018-04-22T20:56:18.570Z,47.20
2018-04-22T20:58:47.185Z,47.70
2018-04-22T21:01:33.994Z,48.80
2018-04-22T21:04:02.551Z,50.00
2018-04-22T21:06:30.214Z,50.00
2018-04-22T21:08:58.618Z,51.40
2018-04-22T21:11:27.042Z,52.10
2018-04-22T21:13:54.698Z,52.10
2018-04-22T21:16:23.066Z,53.30
2018-04-22T21:18:51.538Z,53.50
2018-04-22T21:21:19.190Z,53.50
2018-04-22T21:23:47.626Z,52.70
2018-04-22T21:26:15.268Z,52.70
2018-04-22T21:28:42.933Z,53.70
2018-04-22T21:31:10.561Z,54.30
2018-04-22T21:33:38.989Z,55.60
2018-04-22T21:36:06.653Z,55.60
2018-04-22T21:38:35.066Z,56.30
2018-04-22T21:41:03.487Z,55.50
2018-04-22T21:43:31.141Z,55.40
2018-04-22T21:45:58.765Z,54.30
2018-04-22T21:48:26.398Z,53.40
2018-04-22T21:50:54.094Z,52.60
2018-04-22T21:53:22.521Z,52.80
2018-04-22T21:55:50.912Z,52.10
2018-04-22T21:58:19.362Z,52.80
2018-04-22T22:00:47.014Z,52.80
2018-04-22T22:03:15.422Z,54.00
2018-04-22T22:05:43.829Z,54.30
2018-04-22T22:08:12.261Z,54.90
2018-04-22T22:10:39.926Z,54.90
2018-04-22T22:13:07.582Z,55.00
2018-04-22T22:15:35.243Z,55.40
2018-04-22T22:18:02.882Z,55.70
2018-04-22T22:20:30.579Z,55.70
2018-04-22T22:22:58.190Z,56.00
2018-04-22T22:25:25.910Z,56.80
2018-04-22T22:27:53.555Z,57.30
2018-04-22T22:30:21.180Z,57.50
2018-04-22T22:32:48.858Z,58.00
2018-04-22T22:35:16.474Z,58.20
2018-04-22T22:37:44.111Z,58.60
2018-04-22T22:40:11.715Z,59.50
2018-04-22T22:42:39.380Z,58.90
2018-04-22T22:45:07.010Z,59.10
2018-04-22T22:47:34.654Z,59.10
2018-04-22T22:50:02.308Z,59.30
2018-04-22T22:52:29.920Z,57.60
2018-04-22T22:54:57.578Z,56.70
2018-04-22T22:57:25.193Z,56.00
2018-04-22T22:59:52.853Z,55.90
2018-04-22T23:02:21.269Z,57.10
2018-04-22T23:04:48.908Z,57.10
2018-04-22T23:07:16.593Z,57.60
2018-04-22T23:09:44.226Z,57.50
2018-04-22T23:12:11.906Z,57.30
2018-04-22T23:14:39.545Z,56.80
2018-04-22T23:17:07.589Z,56.40
2018-04-22T23:19:35.213Z,56.10
2018-04-22T23:22:02.889Z,55.80
2018-04-22T23:24:30.545Z,55.30
2018-04-22T23:26:58.166Z,55.00
2018-04-22T23:29:25.844Z,55.60
2018-04-22T23:31:53.465Z,56.50
2018-04-22T23:34:21.153Z,57.00
2018-04-22T23:36:48.786Z,57.30
2018-04-22T23:39:16.474Z,57.80
2018-04-22T23:41:44.101Z,58.10
2018-04-22T23:44:12.504Z,58.60
2018-04-22T23:46:40.154Z,58.60
2018-04-22T23:49:07.801Z,58.70
2018-04-22T23:51:35.458Z,58.60
2018-04-22T23:54:03.891Z,58.70
2018-04-22T23:56:31.522Z,58.60
2018-04-22T23:58:59.133Z,59.10
